Time;durP1;ratioP1;P1;durP2;ratioP2;P2;SDS_P1;SDS_P2;PMS_P1;PMS_P2;Temp;Humidity;BMP_temperature;BMP_pressure;BME280_temperature;BME280_humidity;BME280_pressure;Samples;Min_cycle;Max_cycle;Signal;HPM_P1;HPM_P2
2023/12/24 00:02:23;;;;;;;2.28;2.13;;;5.30;65.70;;;;;;5136363;27;20031;-72
2023/12/24 00:04:49;;;;;;;2.58;2.30;;;5.30;65.70;;;;;;5123587;27;20023;-74
2023/12/24 00:07:16;;;;;;;2.70;2.20;;;5.30;65.60;;;;;;5128272;27;20032;-73
2023/12/24 00:09:42;;;;;;;2.65;2.40;;;5.30;65.50;;;;;;5116939;27;20035;-74
2023/12/24 00:12:08;;;;;;;2.92;2.30;;;5.20;65.50;;;;;;5117252;27;20045;-73
2023/12/24 00:14:33;;;;;;;3.53;2.65;;;5.20;65.50;;;;;;5113600;27;20027;-73
2023/12/24 00:16:59;;;;;;;2.55;2.35;;;5.20;65.50;;;;;;5101419;27;20027;-73
2023/12/24 00:19:25;;;;;;;2.35;2.15;;;5.20;65.50;;;;;;5135865;27;20496;-73
2023/12/24 00:21:51;;;;;;;2.35;2.15;;;5.30;65.50;;;;;;5136334;27;20031;-74
2023/12/24 00:24:17;;;;;;;2.30;2.10;;;5.20;65.40;;;;;;5136098;27;20035;-72
2023/12/24 00:26:42;;;;;;;2.03;1.92;;;5.20;65.40;;;;;;5096180;27;20031;-72
2023/12/24 00:29:08;;;;;;;2.47;2.28;;;5.20;65.50;;;;;;5097222;28;20110;-73
2023/12/24 00:31:34;;;;;;;3.35;2.40;;;5.20;65.40;;;;;;5115342;28;20392;-72
2023/12/24 00:34:00;;;;;;;2.75;2.30;;;5.20;65.40;;;;;;5116963;27;20020;-73
2023/12/24 00:36:25;;;;;;;3.33;2.80;;;5.20;65.40;;;;;;5125715;27;20030;-73
2023/12/24 00:38:51;;;;;;;2.42;2.20;;;5.20;65.40;;;;;;5117117;27;20031;-71
2023/12/24 00:41:17;;;;;;;2.28;2.10;;;5.20;65.30;;;;;;5122164;27;20038;-72
2023/12/24 00:43:45;;;;;;;2.85;2.30;;;5.20;65.30;;;;;;5135529;27;20452;-73
2023/12/24 00:46:17;;;;;;;2.67;2.47;;;5.20;65.30;;;;;;5126219;27;20031;-74
2023/12/24 00:48:43;;;;;;;2.38;2.10;;;5.20;65.30;;;;;;5128102;27;20110;-73
2023/12/24 00:51:09;;;;;;;2.40;2.20;;;5.20;65.20;;;;;;5128140;27;20114;-72
2023/12/24 00:53:36;;;;;;;2.97;2.50;;;5.20;65.20;;;;;;5135919;27;20028;-73
2023/12/24 00:56:02;;;;;;;2.38;2.08;;;5.20;65.20;;;;;;5132808;27;20066;-72
2023/12/24 00:58:27;;;;;;;2.55;2.35;;;5.20;65.20;;;;;;5123076;27;20067;-74
2023/12/24 01:00:53;;;;;;;2.30;2.15;;;5.20;65.20;;;;;;5116445;27;20035;-73
2023/12/24 01:03:19;;;;;;;2.33;2.13;;;5.10;65.20;;;;;;5135573;27;20064;-73
2023/12/24 01:05:45;;;;;;;2.83;2.63;;;5.10;65.10;;;;;;5130486;27;20088;-72
2023/12/24 01:08:11;;;;;;;2.20;2.10;;;5.10;65.10;;;;;;5135190;27;20501;-73
2023/12/24 01:10:37;;;;;;;2.35;2.15;;;5.10;65.20;;;;;;5132076;27;20042;-74
2023/12/24 01:13:03;;;;;;;2.20;2.00;;;5.20;65.20;;;;;;5121989;27;20451;-72
2023/12/24 01:15:29;;;;;;;2.83;2.20;;;5.20;65.10;;;;;;5114694;28;20079;-72
2023/12/24 01:17:54;;;;;;;2.45;2.25;;;5.10;65.10;;;;;;5127481;27;20031;-73
2023/12/24 01:20:21;;;;;;;2.50;2.30;;;5.10;65.00;;;;;;5114172;28;20091;-72
2023/12/24 01:22:47;;;;;;;2.30;2.10;;;5.10;65.00;;;;;;5132550;27;20080;-73
2023/12/24 01:25:13;;;;;;;2.40;2.20;;;5.20;65.10;;;;;;5116792;27;20107;-72
2023/12/24 01:27:38;;;;;;;2.40;2.20;;;5.20;65.00;;;;;;5106931;28;20476;-73
2023/12/24 01:30:05;;;;;;;2.42;2.20;;;5.20;65.00;;;;;;5104943;27;20035;-73
2023/12/24 01:32:31;;;;;;;2.50;2.30;;;5.20;64.90;;;;;;5117571;27;20057;-72
2023/12/24 01:34:58;;;;;;;2.78;2.50;;;5.20;65.00;;;;;;5114202;28;20019;-72
2023/12/24 01:37:24;;;;;;;2.28;2.17;;;5.20;64.90;;;;;;5124985;27;20088;-72
2023/12/24 01:39:49;;;;;;;3.90;2.35;;;5.20;64.90;;;;;;5114372;27;20122;-71
2023/12/24 01:42:15;;;;;;;2.88;2.35;;;5.20;64.90;;;;;;5119373;27;20388;-73
2023/12/24 01:44:41;;;;;;;2.72;2.33;;;5.20;64.90;;;;;;5114068;28;20382;-72
2023/12/24 01:47:07;;;;;;;2.92;2.50;;;5.20;64.80;;;;;;5125649;27;20031;-72
2023/12/24 01:49:34;;;;;;;3.00;2.80;;;5.20;64.80;;;;;;5123485;27;20035;-73
2023/12/24 01:52:01;;;;;;;2.80;2.30;;;5.20;64.80;;;;;;5122525;27;20115;-73
2023/12/24 01:54:28;;;;;;;2.50;2.30;;;5.20;64.70;;;;;;5114232;28;20019;-73
2023/12/24 01:56:53;;;;;;;3.85;2.50;;;5.20;64.80;;;;;;5116264;27;20084;-72
2023/12/24 01:59:20;;;;;;;2.85;2.42;;;5.10;64.80;;;;;;5113409;27;20019;-72
2023/12/24 02:01:46;;;;;;;2.60;2.40;;;5.10;64.80;;;;;;5106129;27;20055;-72
2023/12/24 02:04:14;;;;;;;2.40;2.20;;;5.10;64.80;;;;;;5113214;27;20027;-72
2023/12/24 02:06:40;;;;;;;2.50;2.30;;;5.10;64.80;;;;;;5113240;27;20038;-73
2023/12/24 02:09:05;;;;;;;2.58;2.38;;;5.20;64.80;;;;;;5132447;27;20024;-73
2023/12/24 02:11:31;;;;;;;2.92;2.55;;;5.20;64.90;;;;;;5127586;27;20030;-72
2023/12/24 02:13:57;;;;;;;2.60;2.40;;;5.10;64.70;;;;;;5115789;27;20381;-74
2023/12/24 02:16:27;;;;;;;2.78;2.38;;;5.20;64.70;;;;;;5134368;27;20023;-73
2023/12/24 02:18:53;;;;;;;2.53;2.33;;;5.10;64.60;;;;;;5097101;28;20063;-73
2023/12/24 02:21:19;;;;;;;2.53;2.33;;;5.10;64.60;;;;;;5117177;27;20084;-73
2023/12/24 02:23:45;;;;;;;2.60;2.13;;;5.10;64.60;;;;;;5113383;28;20032;-73
2023/12/24 02:26:37;;;;;;;3.00;2.20;;;5.10;64.60;;;;;;5114168;28;20517;-73
2023/12/24 02:29:13;;;;;;;3.30;2.40;;;5.10;64.60;;;;;;5088520;28;20390;-73
2023/12/24 02:31:45;;;;;;;3.03;2.50;;;5.10;64.70;;;;;;5098424;27;20107;-72
2023/12/24 02:34:14;;;;;;;2.80;2.50;;;5.10;64.60;;;;;;5133522;27;20027;-73
2023/12/24 02:36:40;;;;;;;2.75;2.40;;;5.10;64.70;;;;;;5131466;27;20083;-72
2023/12/24 02:39:06;;;;;;;2.63;2.42;;;5.10;64.60;;;;;;5123439;27;20038;-73
2023/12/24 02:41:32;;;;;;;2.53;2.28;;;5.10;64.70;;;;;;5124590;27;20047;-72
2023/12/24 02:43:58;;;;;;;2.40;2.20;;;5.10;64.70;;;;;;5113299;28;20020;-73
2023/12/24 02:46:24;;;;;;;3.00;2.47;;;5.10;64.60;;;;;;5128813;27;20028;-73
2023/12/24 02:48:49;;;;;;;2.50;2.30;;;5.10;64.60;;;;;;5132842;28;20566;-72
2023/12/24 02:51:15;;;;;;;2.85;2.35;;;5.10;64.60;;;;;;5128460;27;20055;-72
2023/12/24 02:53:42;;;;;;;2.45;2.25;;;5.10;64.60;;;;;;5117406;27;20051;-72
2023/12/24 02:56:08;;;;;;;5.05;2.70;;;5.10;64.60;;;;;;5117522;28;20031;-72
2023/12/24 02:58:33;;;;;;;2.58;2.35;;;5.10;64.60;;;;;;5126920;27;20055;-74
2023/12/24 03:00:59;;;;;;;2.70;2.50;;;5.10;64.60;;;;;;5118820;27;20047;-73
2023/12/24 03:03:25;;;;;;;2.47;2.28;;;5.10;64.60;;;;;;5098723;28;20059;-72
2023/12/24 03:05:50;;;;;;;2.55;2.35;;;5.10;64.60;;;;;;5130120;27;20027;-73
2023/12/24 03:08:17;;;;;;;2.22;2.10;;;5.10;64.60;;;;;;5128747;27;20023;-72
2023/12/24 03:10:43;;;;;;;2.50;2.30;;;5.20;64.60;;;;;;5098564;28;20032;-72
2023/12/24 03:13:08;;;;;;;2.95;2.42;;;5.10;64.60;;;;;;5136392;27;20034;-73
2023/12/24 03:15:34;;;;;;;2.50;2.20;;;5.10;64.50;;;;;;5137433;27;20484;-72
2023/12/24 03:18:00;;;;;;;2.60;2.40;;;5.10;64.60;;;;;;5137197;27;20401;-72
2023/12/24 03:20:26;;;;;;;3.08;2.50;;;5.10;65.20;;;;;;5137371;27;20472;-72
2023/12/24 03:22:52;;;;;;;2.67;2.47;;;5.10;64.60;;;;;;5118275;27;20393;-73
2023/12/24 03:25:17;;;;;;;2.60;2.40;;;5.10;64.60;;;;;;5133984;27;20027;-71
2023/12/24 03:27:43;;;;;;;3.33;2.78;;;5.10;64.60;;;;;;5114792;27;20041;-71
2023/12/24 03:30:09;;;;;;;2.45;2.13;;;5.20;64.60;;;;;;5115112;28;20058;-73
2023/12/24 03:32:35;;;;;;;2.75;2.47;;;5.20;64.60;;;;;;5116645;28;20057;-73
2023/12/24 03:35:01;;;;;;;2.60;2.20;;;5.20;64.60;;;;;;5131160;27;20027;-72
2023/12/24 03:37:26;;;;;;;2.83;2.33;;;5.20;64.60;;;;;;5102836;27;20031;-72
2023/12/24 03:39:52;;;;;;;2.95;2.28;;;5.20;64.60;;;;;;5132760;27;20046;-72
2023/12/24 03:42:18;;;;;;;2.60;2.40;;;5.20;64.60;;;;;;5114176;27;20035;-73
2023/12/24 03:44:43;;;;;;;2.67;2.42;;;5.20;64.60;;;;;;5123236;27;20023;-73
2023/12/24 03:47:09;;;;;;;3.10;2.42;;;5.20;64.60;;;;;;5136453;27;20031;-72
2023/12/24 03:49:35;;;;;;;2.60;2.40;;;5.20;64.60;;;;;;5136715;27;20032;-73
2023/12/24 03:52:01;;;;;;;3.28;2.45;;;5.20;64.60;;;;;;5137443;27;20038;-72
2023/12/24 03:54:26;;;;;;;3.85;2.50;;;5.20;64.60;;;;;;5125373;27;20027;-73
2023/12/24 03:56:52;;;;;;;2.83;2.50;;;5.20;64.60;;;;;;5123916;27;20031;-72
2023/12/24 03:59:18;;;;;;;2.70;2.47;;;5.20;64.60;;;;;;5127990;27;20061;-73
2023/12/24 04:01:44;;;;;;;3.25;2.50;;;5.20;64.60;;;;;;5116135;28;20116;-73
2023/12/24 04:04:09;;;;;;;2.60;2.40;;;5.20;64.60;;;;;;5116126;28;20509;-73
2023/12/24 04:06:35;;;;;;;3.00;2.50;;;5.10;64.60;;;;;;5118800;27;20462;-73
2023/12/24 04:09:01;;;;;;;2.60;2.40;;;5.10;64.70;;;;;;5117791;27;20122;-73
2023/12/24 04:11:27;;;;;;;2.60;2.40;;;5.10;64.60;;;;;;5102870;28;20030;-72
2023/12/24 04:13:53;;;;;;;2.40;2.20;;;5.20;64.70;;;;;;5098912;28;20024;-73
2023/12/24 04:16:18;;;;;;;2.85;2.30;;;5.10;64.60;;;;;;5115788;27;20028;-74
2023/12/24 04:18:44;;;;;;;2.45;2.25;;;5.10;64.70;;;;;;5117585;27;20027;-74
2023/12/24 04:21:10;;;;;;;2.60;2.40;;;5.10;64.70;;;;;;5111996;28;20039;-73
2023/12/24 04:23:35;;;;;;;3.00;2.35;;;5.10;64.60;;;;;;5114523;27;20031;-72
2023/12/24 04:26:01;;;;;;;2.97;2.60;;;5.10;64.60;;;;;;5136140;27;20027;-73
2023/12/24 04:28:27;;;;;;;3.42;2.58;;;5.20;64.70;;;;;;5133026;27;20039;-73
2023/12/24 04:30:53;;;;;;;4.32;2.70;;;5.10;64.60;;;;;;5122900;27;20034;-73
2023/12/24 04:33:19;;;;;;;2.97;2.40;;;5.10;64.60;;;;;;5115532;28;20454;-72
2023/12/24 04:35:45;;;;;;;3.03;2.50;;;5.10;64.60;;;;;;5115348;27;20115;-72
2023/12/24 04:38:11;;;;;;;2.97;2.45;;;5.10;64.60;;;;;;5122083;27;20024;-73
2023/12/24 04:40:37;;;;;;;3.38;2.40;;;5.10;64.60;;;;;;5128590;27;20066;-73
2023/12/24 04:43:03;;;;;;;2.88;2.40;;;5.10;64.70;;;;;;5135675;27;20716;-72
2023/12/24 04:45:28;;;;;;;2.55;2.30;;;5.10;64.60;;;;;;5100671;27;20023;-73
2023/12/24 04:47:58;;;;;;;2.92;2.45;;;5.10;64.60;;;;;;5133697;27;20027;-73
2023/12/24 04:50:24;;;;;;;2.50;2.30;;;5.10;64.60;;;;;;5117326;27;20032;-74
2023/12/24 04:52:50;;;;;;;2.60;2.40;;;5.10;64.50;;;;;;5114902;27;20205;-72
2023/12/24 04:55:15;;;;;;;2.70;2.38;;;5.10;64.60;;;;;;5115669;28;20020;-73
2023/12/24 04:57:41;;;;;;;3.33;2.60;;;5.10;64.60;;;;;;5096668;28;20047;-73
2023/12/24 05:00:08;;;;;;;2.90;2.60;;;5.00;64.60;;;;;;5123731;27;20035;-74
2023/12/24 05:02:33;;;;;;;2.50;2.30;;;5.00;64.60;;;;;;5129683;27;20031;-72
2023/12/24 05:05:03;;;;;;;2.75;2.45;;;5.00;64.70;;;;;;5127515;27;20031;-73
2023/12/24 05:07:29;;;;;;;2.58;2.38;;;5.00;64.70;;;;;;5117069;27;20039;-72
2023/12/24 05:09:55;;;;;;;2.70;2.50;;;5.00;65.30;;;;;;5087909;28;20052;-74
2023/12/24 05:12:21;;;;;;;2.85;2.55;;;5.00;64.60;;;;;;5096726;28;20067;-73
2023/12/24 05:14:47;;;;;;;3.10;2.60;;;5.00;64.60;;;;;;5113540;27;20457;-74
2023/12/24 05:17:12;;;;;;;2.50;2.30;;;5.00;64.60;;;;;;5105851;28;20061;-74
2023/12/24 05:19:38;;;;;;;3.13;2.50;;;5.00;64.60;;;;;;5096639;28;20049;-73
2023/12/24 05:22:04;;;;;;;2.65;2.45;;;5.00;64.50;;;;;;5126766;27;20451;-72
2023/12/24 05:24:30;;;;;;;3.53;2.35;;;5.00;64.50;;;;;;5100277;27;20530;-72
2023/12/24 05:27:09;;;;;;;2.50;2.30;;;5.10;64.60;;;;;;5130507;27;20028;-73
2023/12/24 05:29:35;;;;;;;3.15;2.63;;;5.00;64.60;;;;;;5106350;27;20032;-72
2023/12/24 05:32:02;;;;;;;2.63;2.42;;;5.00;64.50;;;;;;5120953;27;20019;-73
2023/12/24 05:34:27;;;;;;;2.60;2.30;;;5.00;64.50;;;;;;5114498;28;20027;-73
2023/12/24 05:36:53;;;;;;;2.42;2.22;;;5.00;64.60;;;;;;5114419;27;20033;-72
2023/12/24 05:39:19;;;;;;;2.97;2.50;;;5.00;64.50;;;;;;5134698;27;20023;-73
2023/12/24 05:42:03;;;;;;;3.03;2.50;;;5.00;64.50;;;;;;5136566;27;20047;-75
2023/12/24 05:44:29;;;;;;;2.65;2.35;;;5.00;64.50;;;;;;5112886;28;20020;-74
2023/12/24 05:46:54;;;;;;;2.60;2.40;;;5.00;64.50;;;;;;5101167;27;20030;-74
2023/12/24 05:49:20;;;;;;;3.42;2.50;;;5.00;64.50;;;;;;5126927;27;20041;-73
2023/12/24 05:51:46;;;;;;;3.38;2.60;;;5.00;65.10;;;;;;5134400;27;20465;-73
2023/12/24 05:54:12;;;;;;;3.35;3.05;;;5.00;64.50;;;;;;5133023;27;20031;-74
2023/12/24 05:56:38;;;;;;;2.63;2.40;;;5.00;64.50;;;;;;5116022;27;20483;-73
2023/12/24 05:59:03;;;;;;;4.22;2.65;;;5.00;64.50;;;;;;5132108;27;20049;-74
2023/12/24 06:01:29;;;;;;;2.67;2.47;;;5.10;64.50;;;;;;5111284;28;20089;-73
2023/12/24 06:03:55;;;;;;;2.63;2.30;;;5.10;64.50;;;;;;5126368;27;20453;-74
2023/12/24 06:06:22;;;;;;;2.50;2.25;;;5.10;64.50;;;;;;5134430;27;20399;-73
2023/12/24 06:08:48;;;;;;;2.47;2.28;;;5.10;64.40;;;;;;5111715;28;20492;-74
2023/12/24 06:11:17;;;;;;;4.10;2.78;;;5.10;64.40;;;;;;5115851;27;20035;-72
2023/12/24 06:13:43;;;;;;;3.42;2.30;;;5.10;64.40;;;;;;5099790;28;20027;-72
2023/12/24 06:16:09;;;;;;;3.17;2.40;;;5.10;64.30;;;;;;5108261;27;20023;-72
2023/12/24 06:18:35;;;;;;;2.97;2.55;;;5.20;64.40;;;;;;5132025;27;20031;-75
2023/12/24 06:21:02;;;;;;;2.60;2.40;;;5.10;64.30;;;;;;5126000;27;20827;-72
2023/12/24 06:23:27;;;;;;;2.53;2.33;;;5.20;64.30;;;;;;5134459;27;20127;-74
2023/12/24 06:25:53;;;;;;;2.60;2.40;;;5.20;64.30;;;;;;5132169;27;20035;-73
2023/12/24 06:28:19;;;;;;;2.97;2.35;;;5.20;64.30;;;;;;5119461;27;20024;-74
2023/12/24 06:30:45;;;;;;;2.92;2.63;;;5.10;64.20;;;;;;5114270;28;20104;-73
2023/12/24 06:33:10;;;;;;;4.05;2.97;;;5.20;64.30;;;;;;5123498;27;20110;-72
2023/12/24 06:35:36;;;;;;;3.47;2.38;;;5.10;64.20;;;;;;5110002;28;20058;-73
2023/12/24 06:38:02;;;;;;;3.00;2.70;;;5.20;64.20;;;;;;5101532;28;20028;-74
2023/12/24 06:40:28;;;;;;;2.78;2.42;;;5.20;64.20;;;;;;5113658;28;20124;-74
2023/12/24 06:42:53;;;;;;;2.95;2.45;;;5.20;64.20;;;;;;5109214;28;20389;-73
2023/12/24 06:45:19;;;;;;;3.25;2.58;;;5.20;64.20;;;;;;5095206;28;20038;-73
2023/12/24 06:47:45;;;;;;;2.67;2.38;;;5.20;64.20;;;;;;5114540;28;20022;-75
2023/12/24 06:50:11;;;;;;;3.15;2.58;;;5.20;64.20;;;;;;5094537;28;20031;-75
2023/12/24 06:52:36;;;;;;;4.22;2.80;;;5.20;64.20;;;;;;5112421;28;20034;-75
2023/12/24 06:55:02;;;;;;;3.00;2.60;;;5.30;64.20;;;;;;5114305;28;20031;-74
2023/12/24 06:57:28;;;;;;;2.72;2.20;;;5.30;64.10;;;;;;5114073;28;20459;-76
2023/12/24 06:59:54;;;;;;;3.80;2.80;;;5.30;64.10;;;;;;5104581;28;20027;-74
2023/12/24 07:02:19;;;;;;;2.97;2.60;;;5.30;64.00;;;;;;5117279;28;20500;-72
2023/12/24 07:04:45;;;;;;;3.63;2.70;;;5.30;64.00;;;;;;5119930;28;20459;-73
2023/12/24 07:07:11;;;;;;;2.83;2.50;;;5.40;64.00;;;;;;5133553;27;20058;-75
2023/12/24 07:09:37;;;;;;;3.60;2.75;;;5.40;64.10;;;;;;5113719;28;20031;-73
2023/12/24 07:12:03;;;;;;;2.80;2.50;;;5.40;64.00;;;;;;5101633;28;20111;-74
2023/12/24 07:14:29;;;;;;;3.45;2.50;;;5.40;63.90;;;;;;5094679;28;20457;-74
2023/12/24 07:16:55;;;;;;;3.60;2.60;;;5.40;63.90;;;;;;5113886;28;20054;-72
2023/12/24 07:19:21;;;;;;;2.70;2.50;;;5.50;63.80;;;;;;5114158;28;20038;-73
2023/12/24 07:21:47;;;;;;;3.50;2.63;;;5.50;63.80;;;;;;5104871;28;20134;-72
2023/12/24 07:24:12;;;;;;;2.45;2.25;;;5.50;64.50;;;;;;5131759;28;20076;-73
2023/12/24 07:26:38;;;;;;;3.15;2.78;;;5.40;63.70;;;;;;5101949;28;20032;-73
2023/12/24 07:29:04;;;;;;;3.05;2.60;;;5.50;63.80;;;;;;5094544;28;20119;-76
2023/12/24 07:31:30;;;;;;;3.58;2.92;;;5.50;63.90;;;;;;5099098;28;20032;-71
2023/12/24 07:33:55;;;;;;;2.90;2.60;;;5.50;63.80;;;;;;5086756;28;20442;-72
2023/12/24 07:36:21;;;;;;;3.40;2.65;;;5.50;63.80;;;;;;5098373;28;20423;-73
2023/12/24 07:38:47;;;;;;;3.08;2.50;;;5.50;63.70;;;;;;5125796;27;20027;-71
2023/12/24 07:41:12;;;;;;;4.10;2.50;;;5.60;63.70;;;;;;5118710;27;20051;-72
2023/12/24 07:43:38;;;;;;;2.72;2.47;;;5.60;63.70;;;;;;5123006;27;20125;-71
2023/12/24 07:46:04;;;;;;;2.97;2.40;;;5.60;63.60;;;;;;5125972;27;20183;-73
2023/12/24 07:48:30;;;;;;;3.97;2.75;;;5.60;63.60;;;;;;5118546;27;20498;-73
2023/12/24 07:50:55;;;;;;;4.07;2.53;;;5.70;63.70;;;;;;5116045;27;20118;-71
2023/12/24 07:53:21;;;;;;;2.97;2.30;;;5.70;63.60;;;;;;5121279;27;20036;-73
2023/12/24 07:55:47;;;;;;;3.05;2.70;;;5.80;63.60;;;;;;5116303;28;20035;-72
2023/12/24 07:58:13;;;;;;;3.35;2.50;;;5.80;63.50;;;;;;5097997;28;20054;-73
2023/12/24 08:00:39;;;;;;;2.78;2.40;;;5.80;63.40;;;;;;5118352;27;20053;-72
2023/12/24 08:03:05;;;;;;;2.80;2.40;;;5.80;63.30;;;;;;5118700;27;20380;-72
2023/12/24 08:05:31;;;;;;;3.15;2.80;;;5.80;63.40;;;;;;5118707;27;20023;-73
2023/12/24 08:11:17;;;;;;;3.10;2.53;;;5.80;63.40;;;;;;5072201;27;20024;-73
2023/12/24 08:13:43;;;;;;;3.85;2.40;;;5.80;63.40;;;;;;5109031;28;20024;-71
2023/12/24 08:16:09;;;;;;;2.70;2.42;;;5.80;63.30;;;;;;5097164;28;20024;-73
2023/12/24 08:18:37;;;;;;;3.10;2.70;;;5.80;63.30;;;;;;5104748;27;20027;-72
2023/12/24 08:21:04;;;;;;;3.03;2.45;;;5.80;63.30;;;;;;5133176;27;20038;-72
2023/12/24 08:23:30;;;;;;;3.58;2.80;;;5.80;63.40;;;;;;5105267;27;20028;-74
2023/12/24 08:25:55;;;;;;;3.60;2.75;;;5.80;63.40;;;;;;5105370;28;20019;-73
2023/12/24 08:28:22;;;;;;;3.10;2.80;;;5.80;63.40;;;;;;5115673;27;20469;-74
2023/12/24 08:30:48;;;;;;;3.20;2.55;;;5.80;63.40;;;;;;5122403;27;20019;-76
2023/12/24 08:33:13;;;;;;;3.20;2.70;;;5.80;63.40;;;;;;5099740;27;20031;-73
2023/12/24 08:35:39;;;;;;;3.92;2.92;;;5.80;63.30;;;;;;5117583;27;20023;-75
2023/12/24 08:38:05;;;;;;;2.67;2.47;;;5.80;63.30;;;;;;5135931;27;20098;-74
2023/12/24 08:40:30;;;;;;;4.00;2.90;;;5.80;63.30;;;;;;5129633;27;20495;-74
2023/12/24 08:42:56;;;;;;;3.22;2.53;;;5.80;63.30;;;;;;5112553;27;20112;-74
2023/12/24 08:45:23;;;;;;;3.20;2.70;;;5.80;63.30;;;;;;5117323;27;20032;-76
2023/12/24 08:47:48;;;;;;;3.60;2.70;;;5.90;63.30;;;;;;5123955;27;20039;-80
2023/12/24 08:50:15;;;;;;;3.72;2.70;;;5.90;63.30;;;;;;5117832;27;20024;-76
2023/12/24 08:52:41;;;;;;;4.15;2.92;;;5.90;63.30;;;;;;5132793;27;20034;-80
2023/12/24 08:55:07;;;;;;;4.68;2.90;;;5.90;63.30;;;;;;5132809;27;20184;-79
2023/12/24 08:57:33;;;;;;;3.70;2.95;;;5.90;63.40;;;;;;5104700;27;20054;-76
2023/12/24 08:59:59;;;;;;;3.47;2.80;;;5.90;63.30;;;;;;5126557;27;20487;-78
2023/12/24 09:02:25;;;;;;;3.50;2.75;;;5.90;63.30;;;;;;5097863;28;20035;-79
2023/12/24 09:04:51;;;;;;;3.33;2.60;;;5.90;63.30;;;;;;5118675;27;20023;-74
2023/12/24 09:07:17;;;;;;;3.10;2.60;;;5.90;63.30;;;;;;5135641;27;20020;-75
2023/12/24 09:09:43;;;;;;;6.07;2.80;;;5.90;63.30;;;;;;5112881;27;20515;-82
2023/12/24 09:12:09;;;;;;;4.38;3.00;;;5.90;63.30;;;;;;5105777;28;20036;-81
2023/12/24 09:14:35;;;;;;;4.50;2.80;;;5.90;63.30;;;;;;5115989;27;20073;-80
2023/12/24 09:17:00;;;;;;;3.50;2.70;;;5.90;63.30;;;;;;5112205;27;20031;-77
2023/12/24 09:19:26;;;;;;;2.92;2.70;;;5.90;63.30;;;;;;5135600;27;20172;-81
2023/12/24 09:21:52;;;;;;;3.33;2.80;;;6.00;63.40;;;;;;5109695;28;20028;-79
2023/12/24 09:24:18;;;;;;;3.25;2.72;;;6.00;63.50;;;;;;5106147;28;20030;-76
2023/12/24 09:26:43;;;;;;;4.07;2.67;;;5.90;63.50;;;;;;5123669;27;20023;-77
2023/12/24 09:29:12;;;;;;;2.67;2.47;;;6.00;63.60;;;;;;5128549;27;20020;-80
2023/12/24 09:31:41;;;;;;;3.88;2.95;;;6.00;63.70;;;;;;5114482;28;20027;-78
2023/12/24 09:34:08;;;;;;;3.83;2.67;;;6.00;63.70;;;;;;5116658;27;20027;-82
2023/12/24 09:36:33;;;;;;;3.90;2.72;;;6.00;63.70;;;;;;5103085;27;20057;-82
2023/12/24 09:38:59;;;;;;;3.25;2.75;;;6.00;63.70;;;;;;5131154;27;20023;-76
2023/12/24 09:41:25;;;;;;;2.72;2.50;;;6.00;63.70;;;;;;5127857;27;20035;-78
2023/12/24 09:43:51;;;;;;;3.53;2.92;;;6.00;63.70;;;;;;5118159;27;20034;-77
2023/12/24 09:46:16;;;;;;;3.53;3.00;;;6.00;63.70;;;;;;5130054;27;20437;-77
2023/12/24 09:48:42;;;;;;;2.83;2.60;;;6.10;63.80;;;;;;5116418;27;20030;-79
2023/12/24 09:51:11;;;;;;;3.53;2.67;;;6.00;63.90;;;;;;5116774;27;20059;-82
2023/12/24 09:53:36;;;;;;;3.30;2.63;;;6.00;64.00;;;;;;5116382;27;20053;-79
2023/12/24 09:56:02;;;;;;;3.70;2.90;;;6.00;64.00;;;;;;5127878;27;20063;-80
2023/12/24 09:58:28;;;;;;;3.25;2.60;;;6.00;64.10;;;;;;5112421;28;20052;-78
2023/12/24 10:00:54;;;;;;;2.97;2.67;;;6.10;64.10;;;;;;5118423;27;20102;-81
2023/12/24 10:03:19;;;;;;;3.70;2.50;;;6.10;64.10;;;;;;5134562;27;20352;-80
2023/12/24 10:06:07;;;;;;;3.50;2.90;;;6.20;64.00;;;;;;5118063;27;20084;-85
2023/12/24 10:08:34;;;;;;;3.55;2.92;;;6.20;64.00;;;;;;5113010;28;20398;-81
2023/12/24 10:11:15;;;;;;;3.45;2.88;;;6.20;63.80;;;;;;5112906;28;20027;-79
2023/12/24 10:13:42;;;;;;;3.78;2.80;;;6.20;63.70;;;;;;5115929;27;20388;-78
2023/12/24 10:16:09;;;;;;;2.92;2.58;;;6.20;63.70;;;;;;5115586;27;20034;-79
2023/12/24 10:18:35;;;;;;;3.83;2.83;;;6.10;63.70;;;;;;5113059;27;20031;-79
2023/12/24 10:21:09;;;;;;;5.22;2.60;;;6.20;63.80;;;;;;5103879;28;20442;-76
2023/12/24 10:23:36;;;;;;;2.95;2.60;;;6.20;63.70;;;;;;5115788;27;20023;-77
2023/12/24 10:26:13;;;;;;;2.83;2.50;;;6.20;63.60;;;;;;5115727;27;20042;-78
2023/12/24 10:28:53;;;;;;;3.40;2.80;;;6.10;63.60;;;;;;5128768;27;20023;-78
2023/12/24 10:31:18;;;;;;;3.35;2.80;;;6.10;63.60;;;;;;5115260;27;20073;-78
2023/12/24 10:33:44;;;;;;;5.43;2.70;;;6.20;63.60;;;;;;5133754;27;20415;-76
2023/12/24 10:36:10;;;;;;;4.35;3.00;;;6.20;63.60;;;;;;5129661;27;20027;-78
2023/12/24 10:38:37;;;;;;;3.25;2.70;;;6.10;63.40;;;;;;5134086;27;20399;-79
2023/12/24 10:41:06;;;;;;;3.63;2.60;;;6.20;63.50;;;;;;5115434;27;20023;-82
2023/12/24 10:43:35;;;;;;;3.53;2.63;;;6.10;63.40;;;;;;5141524;27;20050;-89
2023/12/24 10:46:02;;;;;;;2.97;2.47;;;6.20;63.50;;;;;;5118240;27;20043;-83
2023/12/24 10:48:28;;;;;;;3.25;2.80;;;6.10;63.40;;;;;;5127901;27;20033;-85
2023/12/24 10:50:56;;;;;;;3.55;2.70;;;6.10;63.40;;;;;;5107151;28;20035;-88
2023/12/24 10:53:22;;;;;;;2.88;2.40;;;6.10;63.40;;;;;;5128919;27;20027;-81
2023/12/24 10:56:06;;;;;;;2.60;2.40;;;6.20;63.50;;;;;;5110067;28;20031;-83
2023/12/24 10:58:50;;;;;;;2.80;2.50;;;6.20;63.50;;;;;;5095063;28;20043;-81
2023/12/24 11:01:17;;;;;;;2.80;2.50;;;6.20;63.50;;;;;;5107782;28;20072;-84
2023/12/24 11:03:48;;;;;;;3.47;2.70;;;6.20;63.40;;;;;;5115438;28;20031;-82
2023/12/24 11:06:39;;;;;;;2.67;2.45;;;6.30;63.40;;;;;;5118351;28;20508;-87
2023/12/24 11:09:31;;;;;;;3.70;2.50;;;6.30;63.30;;;;;;5111762;28;20528;-80
2023/12/24 11:11:58;;;;;;;3.03;2.60;;;6.30;63.20;;;;;;5108384;28;20066;-80
2023/12/24 11:14:45;;;;;;;3.20;2.45;;;6.30;63.10;;;;;;5116868;27;20110;-83
2023/12/24 11:17:37;;;;;;;3.03;2.50;;;6.40;63.10;;;;;;5131104;27;20024;-83
2023/12/24 11:20:18;;;;;;;2.50;2.30;;;6.40;63.00;;;;;;5089283;28;20435;-82
2023/12/24 11:23:14;;;;;;;2.92;2.63;;;6.40;62.80;;;;;;5099316;28;20456;-82
2023/12/24 11:25:47;;;;;;;2.47;2.28;;;6.40;62.70;;;;;;5100270;28;20047;-77
2023/12/24 11:28:35;;;;;;;2.65;2.30;;;6.40;62.60;;;;;;5117225;28;20028;-80
2023/12/24 11:31:03;;;;;;;2.50;2.30;;;6.40;62.50;;;;;;5121040;27;20033;-78
2023/12/24 11:33:29;;;;;;;3.03;2.38;;;6.40;62.60;;;;;;5137754;27;20026;-79
2023/12/24 11:35:56;;;;;;;3.42;2.50;;;6.40;62.40;;;;;;5115216;27;20032;-84
2023/12/24 11:38:35;;;;;;;3.72;2.75;;;6.40;62.20;;;;;;5099684;28;20085;-84
2023/12/24 11:41:07;;;;;;;2.75;2.33;;;6.40;62.00;;;;;;5106877;27;20096;-83
2023/12/24 11:43:34;;;;;;;2.90;2.40;;;6.40;62.10;;;;;;5099520;27;20027;-81
2023/12/24 11:46:00;;;;;;;2.92;2.38;;;6.40;62.00;;;;;;5114652;27;20110;-77
2023/12/24 11:48:28;;;;;;;2.83;2.25;;;6.30;61.80;;;;;;5133700;27;20110;-81
2023/12/24 11:51:04;;;;;;;3.17;2.60;;;6.30;61.70;;;;;;5108020;27;20043;-77
2023/12/24 11:53:32;;;;;;;3.00;2.38;;;6.30;61.70;;;;;;5128357;27;20481;-77
2023/12/24 11:56:09;;;;;;;2.58;2.20;;;6.30;61.50;;;;;;5098990;27;20500;-78
2023/12/24 11:58:37;;;;;;;2.60;2.40;;;6.30;61.50;;;;;;5078789;27;20059;-82
2023/12/24 12:01:03;;;;;;;2.55;2.33;;;6.20;61.30;;;;;;5118822;27;20046;-84
2023/12/24 12:03:34;;;;;;;2.72;2.38;;;6.20;61.20;;;;;;5117669;27;20031;-79
2023/12/24 12:06:00;;;;;;;2.75;2.22;;;6.10;61.20;;;;;;5117368;27;20086;-76
2023/12/24 12:08:30;;;;;;;2.38;2.17;;;6.10;61.20;;;;;;5105535;27;20034;-77
2023/12/24 12:10:56;;;;;;;2.40;2.20;;;6.00;61.20;;;;;;5135927;27;20134;-76
2023/12/24 12:13:22;;;;;;;2.50;2.30;;;6.00;61.20;;;;;;5136599;27;20031;-76
2023/12/24 12:15:48;;;;;;;2.55;2.33;;;5.90;61.10;;;;;;5134746;27;20072;-78
2023/12/24 12:18:15;;;;;;;2.42;2.22;;;5.90;61.00;;;;;;5118198;27;20039;-76
2023/12/24 12:20:41;;;;;;;2.50;2.30;;;5.90;61.10;;;;;;5130183;27;20059;-80
2023/12/24 12:23:08;;;;;;;2.50;2.30;;;5.80;61.10;;;;;;5125163;27;20034;-77
2023/12/24 12:25:34;;;;;;;2.53;2.30;;;5.80;61.10;;;;;;5103991;27;20024;-79
2023/12/24 12:28:00;;;;;;;2.67;2.25;;;5.80;61.10;;;;;;5113014;27;20034;-78
2023/12/24 12:30:28;;;;;;;2.35;2.17;;;5.80;61.10;;;;;;5131997;27;20035;-78
2023/12/24 12:32:54;;;;;;;2.83;2.45;;;5.80;61.10;;;;;;5124600;27;20031;-78
2023/12/24 12:35:23;;;;;;;2.80;2.50;;;5.80;61.10;;;;;;5135959;27;20144;-79
2023/12/24 12:38:45;;;;;;;2.50;2.30;;;5.80;61.10;;;;;;5136542;27;20079;-81
2023/12/24 12:41:11;;;;;;;2.65;2.45;;;5.80;60.80;;;;;;5112679;28;20046;-78
2023/12/24 12:43:36;;;;;;;2.40;2.20;;;5.80;60.80;;;;;;5106327;27;20393;-78
2023/12/24 12:46:02;;;;;;;2.35;2.15;;;5.80;60.80;;;;;;5116815;27;20550;-79
2023/12/24 12:48:28;;;;;;;2.90;2.42;;;5.70;60.70;;;;;;5131071;27;20092;-77
2023/12/24 12:54:39;;;;;;;2.80;2.40;;;5.70;60.70;;;;;;5010919;28;20036;-78
2023/12/24 12:57:05;;;;;;;2.50;2.30;;;5.70;60.70;;;;;;5094889;28;20028;-78
2023/12/24 12:59:32;;;;;;;2.72;2.30;;;5.70;60.60;;;;;;5076670;28;20118;-77
2023/12/24 13:01:59;;;;;;;3.88;2.33;;;5.70;60.60;;;;;;5094864;28;20027;-77
2023/12/24 13:04:37;;;;;;;2.75;2.40;;;5.60;60.60;;;;;;5094790;28;20119;-78
2023/12/24 13:07:07;;;;;;;2.42;2.22;;;5.60;60.60;;;;;;5076314;28;20024;-77